sensor_id;sensor_type;location;lat;lon;timestamp;temperature;humidity
25352;DHT22;13304;48.464;8.712;2023-09-12T00:00:06;22.60;71.20
25352;DHT22;13304;48.464;8.712;2023-09-12T00:02:32;22.60;71.40
25352;DHT22;13304;48.464;8.712;2023-09-12T00:04:57;22.60;71.50
25352;DHT22;13304;48.464;8.712;2023-09-12T00:07:23;22.50;71.50
25352;DHT22;13304;48.464;8.712;2023-09-12T00:09:49;22.50;71.70
25352;DHT22;13304;48.464;8.712;2023-09-12T00:12:15;22.50;71.80
25352;DHT22;13304;48.464;8.712;2023-09-12T00:14:41;22.50;71.90
25352;DHT22;13304;48.464;8.712;2023-09-12T00:17:06;22.40;72.00
25352;DHT22;13304;48.464;8.712;2023-09-12T00:19:32;22.40;72.20
25352;DHT22;13304;48.464;8.712;2023-09-12T00:21:58;22.40;72.30
25352;DHT22;13304;48.464;8.712;2023-09-12T00:24:24;22.40;72.50
25352;DHT22;13304;48.464;8.712;2023-09-12T00:26:49;22.40;72.60
25352;DHT22;13304;48.464;8.712;2023-09-12T00:29:15;22.40;72.70
25352;DHT22;13304;48.464;8.712;2023-09-12T00:31:40;22.30;72.80
25352;DHT22;13304;48.464;8.712;2023-09-12T00:34:06;22.30;72.80
25352;DHT22;13304;48.464;8.712;2023-09-12T00:36:31;22.30;72.90
25352;DHT22;13304;48.464;8.712;2023-09-12T00:38:58;22.30;73.10
25352;DHT22;13304;48.464;8.712;2023-09-12T00:41:24;22.30;73.10
25352;DHT22;13304;48.464;8.712;2023-09-12T00:43:49;22.20;73.10
25352;DHT22;13304;48.464;8.712;2023-09-12T00:46:19;22.20;73.10
25352;DHT22;13304;48.464;8.712;2023-09-12T00:48:47;22.20;73.40
25352;DHT22;13304;48.464;8.712;2023-09-12T00:51:15;22.20;73.30
25352;DHT22;13304;48.464;8.712;2023-09-12T00:53:42;22.10;73.40
25352;DHT22;13304;48.464;8.712;2023-09-12T00:56:08;22.10;73.30
25352;DHT22;13304;48.464;8.712;2023-09-12T00:58:35;22.10;73.30
25352;DHT22;13304;48.464;8.712;2023-09-12T01:01:02;22.10;73.30
25352;DHT22;13304;48.464;8.712;2023-09-12T01:03:27;22.10;73.40
25352;DHT22;13304;48.464;8.712;2023-09-12T01:05:54;22.10;73.50
25352;DHT22;13304;48.464;8.712;2023-09-12T01:08:19;22.00;73.60
25352;DHT22;13304;48.464;8.712;2023-09-12T01:10:47;22.00;73.70
25352;DHT22;13304;48.464;8.712;2023-09-12T01:13:15;22.00;73.80
25352;DHT22;13304;48.464;8.712;2023-09-12T01:15:41;22.00;74.50
25352;DHT22;13304;48.464;8.712;2023-09-12T01:18:07;21.90;73.60
25352;DHT22;13304;48.464;8.712;2023-09-12T01:20:34;21.90;73.60
25352;DHT22;13304;48.464;8.712;2023-09-12T01:28:34;21.80;73.90
25352;DHT22;13304;48.464;8.712;2023-09-12T01:31:01;21.80;73.70
25352;DHT22;13304;48.464;8.712;2023-09-12T01:33:28;21.80;74.00
25352;DHT22;13304;48.464;8.712;2023-09-12T01:35:54;21.80;74.90
25352;DHT22;13304;48.464;8.712;2023-09-12T01:38:21;21.70;74.20
25352;DHT22;13304;48.464;8.712;2023-09-12T01:40:49;21.70;74.40
25352;DHT22;13304;48.464;8.712;2023-09-12T01:43:17;21.70;74.50
25352;DHT22;13304;48.464;8.712;2023-09-12T01:45:46;21.60;74.50
25352;DHT22;13304;48.464;8.712;2023-09-12T01:48:14;21.60;74.70
25352;DHT22;13304;48.464;8.712;2023-09-12T01:50:43;21.60;74.80
25352;DHT22;13304;48.464;8.712;2023-09-12T01:53:08;21.60;74.80
25352;DHT22;13304;48.464;8.712;2023-09-12T01:55:35;21.60;74.90
25352;DHT22;13304;48.464;8.712;2023-09-12T01:58:02;21.60;74.90
25352;DHT22;13304;48.464;8.712;2023-09-12T02:00:28;21.60;74.80
25352;DHT22;13304;48.464;8.712;2023-09-12T02:02:54;21.50;74.80
25352;DHT22;13304;48.464;8.712;2023-09-12T02:05:21;21.50;75.70
25352;DHT22;13304;48.464;8.712;2023-09-12T02:07:47;21.50;75.00
25352;DHT22;13304;48.464;8.712;2023-09-12T02:10:13;21.50;75.10
25352;DHT22;13304;48.464;8.712;2023-09-12T02:12:39;21.50;75.10
25352;DHT22;13304;48.464;8.712;2023-09-12T02:15:06;21.40;75.00
25352;DHT22;13304;48.464;8.712;2023-09-12T02:17:31;21.40;75.20
25352;DHT22;13304;48.464;8.712;2023-09-12T02:19:57;21.40;75.30
25352;DHT22;13304;48.464;8.712;2023-09-12T02:22:23;21.40;75.40
25352;DHT22;13304;48.464;8.712;2023-09-12T02:24:49;21.30;75.40
25352;DHT22;13304;48.464;8.712;2023-09-12T02:27:15;21.30;75.60
25352;DHT22;13304;48.464;8.712;2023-09-12T02:29:41;21.30;75.70
25352;DHT22;13304;48.464;8.712;2023-09-12T02:32:08;21.30;75.80
25352;DHT22;13304;48.464;8.712;2023-09-12T02:34:33;21.30;75.90
25352;DHT22;13304;48.464;8.712;2023-09-12T02:36:59;21.30;76.00
25352;DHT22;13304;48.464;8.712;2023-09-12T02:39:25;21.20;75.90
25352;DHT22;13304;48.464;8.712;2023-09-12T02:41:50;21.20;76.00
25352;DHT22;13304;48.464;8.712;2023-09-12T02:44:16;21.20;76.00
25352;DHT22;13304;48.464;8.712;2023-09-12T02:46:42;21.20;76.00
25352;DHT22;13304;48.464;8.712;2023-09-12T02:49:08;21.20;76.10
25352;DHT22;13304;48.464;8.712;2023-09-12T02:51:33;21.20;76.20
25352;DHT22;13304;48.464;8.712;2023-09-12T02:53:59;21.10;76.20
25352;DHT22;13304;48.464;8.712;2023-09-12T02:56:24;21.10;76.40
25352;DHT22;13304;48.464;8.712;2023-09-12T02:58:50;21.10;76.50
25352;DHT22;13304;48.464;8.712;2023-09-12T03:01:20;21.10;76.60
25352;DHT22;13304;48.464;8.712;2023-09-12T03:03:46;21.00;76.60
25352;DHT22;13304;48.464;8.712;2023-09-12T03:06:13;21.00;77.40
25352;DHT22;13304;48.464;8.712;2023-09-12T03:08:40;21.00;76.60
25352;DHT22;13304;48.464;8.712;2023-09-12T03:11:05;21.00;76.70
25352;DHT22;13304;48.464;8.712;2023-09-12T03:13:33;21.00;76.60
25352;DHT22;13304;48.464;8.712;2023-09-12T03:15:59;21.00;76.50
25352;DHT22;13304;48.464;8.712;2023-09-12T03:18:25;21.00;76.40
25352;DHT22;13304;48.464;8.712;2023-09-12T03:20:50;21.00;76.20
25352;DHT22;13304;48.464;8.712;2023-09-12T03:23:16;20.90;76.20
25352;DHT22;13304;48.464;8.712;2023-09-12T03:25:41;20.90;76.30
25352;DHT22;13304;48.464;8.712;2023-09-12T03:28:07;20.90;76.50
25352;DHT22;13304;48.464;8.712;2023-09-12T03:30:35;20.80;76.60
25352;DHT22;13304;48.464;8.712;2023-09-12T03:33:01;20.80;76.80
25352;DHT22;13304;48.464;8.712;2023-09-12T03:35:31;20.80;77.00
25352;DHT22;13304;48.464;8.712;2023-09-12T03:37:57;20.80;77.10
25352;DHT22;13304;48.464;8.712;2023-09-12T03:40:22;20.80;77.10
25352;DHT22;13304;48.464;8.712;2023-09-12T03:42:48;20.80;77.20
25352;DHT22;13304;48.464;8.712;2023-09-12T03:45:14;20.80;77.20
25352;DHT22;13304;48.464;8.712;2023-09-12T03:47:39;20.80;77.30
25352;DHT22;13304;48.464;8.712;2023-09-12T03:50:05;20.80;77.60
25352;DHT22;13304;48.464;8.712;2023-09-12T03:52:31;20.80;77.50
25352;DHT22;13304;48.464;8.712;2023-09-12T03:54:56;20.80;77.60
25352;DHT22;13304;48.464;8.712;2023-09-12T03:57:22;20.80;77.70
25352;DHT22;13304;48.464;8.712;2023-09-12T03:59:48;20.80;77.70
25352;DHT22;13304;48.464;8.712;2023-09-12T04:02:13;20.80;77.80
25352;DHT22;13304;48.464;8.712;2023-09-12T04:04:39;20.80;78.00
25352;DHT22;13304;48.464;8.712;2023-09-12T04:07:05;20.90;78.00
25352;DHT22;13304;48.464;8.712;2023-09-12T04:09:31;20.90;78.10
25352;DHT22;13304;48.464;8.712;2023-09-12T04:11:57;20.90;78.10
25352;DHT22;13304;48.464;8.712;2023-09-12T04:14:22;20.90;78.20
25352;DHT22;13304;48.464;8.712;2023-09-12T04:16:48;20.90;78.30
25352;DHT22;13304;48.464;8.712;2023-09-12T04:19:14;20.90;78.30
25352;DHT22;13304;48.464;8.712;2023-09-12T04:21:40;20.90;78.20
25352;DHT22;13304;48.464;8.712;2023-09-12T04:24:06;20.90;78.20
25352;DHT22;13304;48.464;8.712;2023-09-12T04:26:32;20.90;78.10
25352;DHT22;13304;48.464;8.712;2023-09-12T04:28:58;21.00;78.00
25352;DHT22;13304;48.464;8.712;2023-09-12T04:31:23;21.00;78.00
25352;DHT22;13304;48.464;8.712;2023-09-12T04:33:53;21.00;78.00
25352;DHT22;13304;48.464;8.712;2023-09-12T04:36:19;20.90;78.00
25352;DHT22;13304;48.464;8.712;2023-09-12T04:38:45;20.90;77.90
25352;DHT22;13304;48.464;8.712;2023-09-12T04:41:12;21.00;78.10
25352;DHT22;13304;48.464;8.712;2023-09-12T04:43:41;20.90;78.00
25352;DHT22;13304;48.464;8.712;2023-09-12T04:46:06;21.00;78.10
25352;DHT22;13304;48.464;8.712;2023-09-12T04:48:32;20.90;78.00
25352;DHT22;13304;48.464;8.712;2023-09-12T04:50:58;20.90;78.10
25352;DHT22;13304;48.464;8.712;2023-09-12T04:53:23;20.90;78.10
25352;DHT22;13304;48.464;8.712;2023-09-12T04:55:52;20.90;78.10
25352;DHT22;13304;48.464;8.712;2023-09-12T04:58:17;20.90;78.20
25352;DHT22;13304;48.464;8.712;2023-09-12T05:00:43;20.90;78.20
25352;DHT22;13304;48.464;8.712;2023-09-12T05:03:09;20.90;78.20
25352;DHT22;13304;48.464;8.712;2023-09-12T05:05:35;20.90;79.00
25352;DHT22;13304;48.464;8.712;2023-09-12T05:08:02;20.90;78.10
25352;DHT22;13304;48.464;8.712;2023-09-12T05:10:27;20.90;79.00
25352;DHT22;13304;48.464;8.712;2023-09-12T05:12:53;20.90;78.10
25352;DHT22;13304;48.464;8.712;2023-09-12T05:15:19;20.90;78.10
25352;DHT22;13304;48.464;8.712;2023-09-12T05:17:45;20.90;78.20
25352;DHT22;13304;48.464;8.712;2023-09-12T05:20:10;20.90;78.20
25352;DHT22;13304;48.464;8.712;2023-09-12T05:22:36;20.80;78.10
25352;DHT22;13304;48.464;8.712;2023-09-12T05:25:02;20.80;78.10
25352;DHT22;13304;48.464;8.712;2023-09-12T05:27:27;20.80;78.20
25352;DHT22;13304;48.464;8.712;2023-09-12T05:29:53;20.80;78.40
25352;DHT22;13304;48.464;8.712;2023-09-12T05:32:18;20.80;78.50
25352;DHT22;13304;48.464;8.712;2023-09-12T05:34:44;20.80;78.60
25352;DHT22;13304;48.464;8.712;2023-09-12T05:37:10;20.90;78.80
25352;DHT22;13304;48.464;8.712;2023-09-12T05:39:36;20.80;78.80
25352;DHT22;13304;48.464;8.712;2023-09-12T05:42:02;20.90;78.90
25352;DHT22;13304;48.464;8.712;2023-09-12T05:44:27;20.90;78.90
25352;DHT22;13304;48.464;8.712;2023-09-12T05:46:53;20.90;78.90
25352;DHT22;13304;48.464;8.712;2023-09-12T05:49:19;20.90;79.00
25352;DHT22;13304;48.464;8.712;2023-09-12T05:51:45;20.90;79.00
25352;DHT22;13304;48.464;8.712;2023-09-12T05:54:11;21.00;79.20
25352;DHT22;13304;48.464;8.712;2023-09-12T05:56:39;21.00;79.20
25352;DHT22;13304;48.464;8.712;2023-09-12T05:59:05;21.10;79.30
25352;DHT22;13304;48.464;8.712;2023-09-12T06:01:31;21.10;79.20
25352;DHT22;13304;48.464;8.712;2023-09-12T06:03:57;21.10;79.20
25352;DHT22;13304;48.464;8.712;2023-09-12T06:06:23;21.20;79.20
25352;DHT22;13304;48.464;8.712;2023-09-12T06:08:48;21.20;79.20
25352;DHT22;13304;48.464;8.712;2023-09-12T06:11:14;21.30;79.20
25352;DHT22;13304;48.464;8.712;2023-09-12T06:13:39;21.30;79.20
25352;DHT22;13304;48.464;8.712;2023-09-12T06:16:06;21.40;79.20
25352;DHT22;13304;48.464;8.712;2023-09-12T06:18:32;21.40;79.20
25352;DHT22;13304;48.464;8.712;2023-09-12T06:21:01;21.50;80.10
25352;DHT22;13304;48.464;8.712;2023-09-12T06:23:30;21.50;79.20
25352;DHT22;13304;48.464;8.712;2023-09-12T06:25:56;21.50;79.20
25352;DHT22;13304;48.464;8.712;2023-09-12T06:28:26;21.60;79.30
25352;DHT22;13304;48.464;8.712;2023-09-12T06:30:52;21.60;79.20
25352;DHT22;13304;48.464;8.712;2023-09-12T06:33:17;21.70;79.20
25352;DHT22;13304;48.464;8.712;2023-09-12T06:35:43;21.70;79.10
25352;DHT22;13304;48.464;8.712;2023-09-12T06:38:08;21.70;78.90
25352;DHT22;13304;48.464;8.712;2023-09-12T06:40:34;21.80;78.90
25352;DHT22;13304;48.464;8.712;2023-09-12T06:43:00;21.80;78.70
25352;DHT22;13304;48.464;8.712;2023-09-12T06:45:25;21.90;78.70
25352;DHT22;13304;48.464;8.712;2023-09-12T06:47:51;21.90;78.70
25352;DHT22;13304;48.464;8.712;2023-09-12T06:50:16;22.00;78.90
25352;DHT22;13304;48.464;8.712;2023-09-12T06:52:42;22.00;78.90
25352;DHT22;13304;48.464;8.712;2023-09-12T06:55:08;22.10;79.00
25352;DHT22;13304;48.464;8.712;2023-09-12T06:57:33;22.20;79.10
25352;DHT22;13304;48.464;8.712;2023-09-12T06:59:59;22.30;78.90
25352;DHT22;13304;48.464;8.712;2023-09-12T07:02:26;22.30;78.70
25352;DHT22;13304;48.464;8.712;2023-09-12T07:04:52;22.40;78.40
25352;DHT22;13304;48.464;8.712;2023-09-12T07:07:17;22.50;78.90
25352;DHT22;13304;48.464;8.712;2023-09-12T07:09:44;22.60;78.00
25352;DHT22;13304;48.464;8.712;2023-09-12T07:12:10;22.60;77.70
25352;DHT22;13304;48.464;8.712;2023-09-12T07:14:35;22.60;77.50
25352;DHT22;13304;48.464;8.712;2023-09-12T07:17:03;22.70;77.40
25352;DHT22;13304;48.464;8.712;2023-09-12T07:19:32;22.70;77.40
25352;DHT22;13304;48.464;8.712;2023-09-12T07:21:58;22.70;77.40
25352;DHT22;13304;48.464;8.712;2023-09-12T07:24:27;22.80;77.50
25352;DHT22;13304;48.464;8.712;2023-09-12T07:26:53;22.80;77.50
25352;DHT22;13304;48.464;8.712;2023-09-12T07:29:19;22.90;77.50
25352;DHT22;13304;48.464;8.712;2023-09-12T07:31:44;23.00;77.50
25352;DHT22;13304;48.464;8.712;2023-09-12T07:34:10;23.00;77.50
25352;DHT22;13304;48.464;8.712;2023-09-12T07:36:37;23.00;77.30
25352;DHT22;13304;48.464;8.712;2023-09-12T07:39:03;23.10;77.30
25352;DHT22;13304;48.464;8.712;2023-09-12T07:41:30;23.20;77.40
25352;DHT22;13304;48.464;8.712;2023-09-12T07:43:55;23.20;77.30
25352;DHT22;13304;48.464;8.712;2023-09-12T07:46:21;23.30;77.30
25352;DHT22;13304;48.464;8.712;2023-09-12T07:48:47;23.30;77.20
25352;DHT22;13304;48.464;8.712;2023-09-12T07:51:13;23.40;77.10
25352;DHT22;13304;48.464;8.712;2023-09-12T07:53:40;23.40;76.90
25352;DHT22;13304;48.464;8.712;2023-09-12T07:56:06;23.50;76.60
25352;DHT22;13304;48.464;8.712;2023-09-12T07:58:32;23.60;77.20
25352;DHT22;13304;48.464;8.712;2023-09-12T08:00:58;23.60;76.30
25352;DHT22;13304;48.464;8.712;2023-09-12T08:03:23;23.70;76.80
25352;DHT22;13304;48.464;8.712;2023-09-12T08:05:56;23.80;76.00
25352;DHT22;13304;48.464;8.712;2023-09-12T08:08:22;23.80;75.70
25352;DHT22;13304;48.464;8.712;2023-09-12T08:10:48;23.90;75.70
25352;DHT22;13304;48.464;8.712;2023-09-12T08:13:14;24.00;75.40
25352;DHT22;13304;48.464;8.712;2023-09-12T08:15:40;24.10;75.30
25352;DHT22;13304;48.464;8.712;2023-09-12T08:18:06;24.20;75.20
25352;DHT22;13304;48.464;8.712;2023-09-12T08:20:32;24.30;75.20
25352;DHT22;13304;48.464;8.712;2023-09-12T08:22:57;24.30;75.10
25352;DHT22;13304;48.464;8.712;2023-09-12T08:25:23;24.40;75.00
25352;DHT22;13304;48.464;8.712;2023-09-12T08:27:50;24.50;74.90
25352;DHT22;13304;48.464;8.712;2023-09-12T08:30:16;24.60;74.70
25352;DHT22;13304;48.464;8.712;2023-09-12T08:32:42;24.60;74.40
25352;DHT22;13304;48.464;8.712;2023-09-12T08:35:11;24.70;74.10
25352;DHT22;13304;48.464;8.712;2023-09-12T08:37:41;24.80;74.00
25352;DHT22;13304;48.464;8.712;2023-09-12T08:40:10;24.80;73.60
25352;DHT22;13304;48.464;8.712;2023-09-12T08:42:41;24.90;73.30
25352;DHT22;13304;48.464;8.712;2023-09-12T08:45:17;25.00;72.70
25352;DHT22;13304;48.464;8.712;2023-09-12T08:47:51;25.00;72.60
25352;DHT22;13304;48.464;8.712;2023-09-12T08:50:17;25.10;72.30
25352;DHT22;13304;48.464;8.712;2023-09-12T08:52:45;25.20;72.40
25352;DHT22;13304;48.464;8.712;2023-09-12T08:55:11;25.30;71.80
25352;DHT22;13304;48.464;8.712;2023-09-12T08:57:40;25.30;71.70
25352;DHT22;13304;48.464;8.712;2023-09-12T09:00:06;25.40;71.40
25352;DHT22;13304;48.464;8.712;2023-09-12T09:02:37;25.50;71.50
25352;DHT22;13304;48.464;8.712;2023-09-12T09:05:07;25.60;71.30
25352;DHT22;13304;48.464;8.712;2023-09-12T09:07:39;25.60;70.60
25352;DHT22;13304;48.464;8.712;2023-09-12T09:10:06;25.70;69.90
25352;DHT22;13304;48.464;8.712;2023-09-12T09:12:33;25.80;69.90
25352;DHT22;13304;48.464;8.712;2023-09-12T09:14:59;25.90;69.70
25352;DHT22;13304;48.464;8.712;2023-09-12T09:17:44;25.90;69.10
25352;DHT22;13304;48.464;8.712;2023-09-12T09:20:27;26.00;69.00
25352;DHT22;13304;48.464;8.712;2023-09-12T09:22:57;26.10;68.50
25352;DHT22;13304;48.464;8.712;2023-09-12T09:25:23;26.10;68.60
25352;DHT22;13304;48.464;8.712;2023-09-12T09:27:49;26.30;68.70
25352;DHT22;13304;48.464;8.712;2023-09-12T09:30:15;26.30;68.30
25352;DHT22;13304;48.464;8.712;2023-09-12T09:32:40;26.40;68.00
25352;DHT22;13304;48.464;8.712;2023-09-12T09:35:07;26.50;67.60
25352;DHT22;13304;48.464;8.712;2023-09-12T09:37:33;26.50;67.30
25352;DHT22;13304;48.464;8.712;2023-09-12T09:39:58;26.60;67.00
25352;DHT22;13304;48.464;8.712;2023-09-12T09:42:24;26.60;66.70
25352;DHT22;13304;48.464;8.712;2023-09-12T09:44:54;26.70;67.40
25352;DHT22;13304;48.464;8.712;2023-09-12T09:47:19;26.70;66.50
25352;DHT22;13304;48.464;8.712;2023-09-12T09:49:45;26.80;66.10
25352;DHT22;13304;48.464;8.712;2023-09-12T09:52:12;26.90;66.00
25352;DHT22;13304;48.464;8.712;2023-09-12T09:54:43;26.90;65.90
25352;DHT22;13304;48.464;8.712;2023-09-12T09:57:09;27.00;65.20
25352;DHT22;13304;48.464;8.712;2023-09-12T09:59:35;27.00;65.30
25352;DHT22;13304;48.464;8.712;2023-09-12T10:02:01;27.10;64.60
25352;DHT22;13304;48.464;8.712;2023-09-12T10:04:29;27.10;63.50
25352;DHT22;13304;48.464;8.712;2023-09-12T10:06:57;27.20;63.80
25352;DHT22;13304;48.464;8.712;2023-09-12T10:09:26;27.20;63.70
25352;DHT22;13304;48.464;8.712;2023-09-12T10:11:52;27.30;63.80
25352;DHT22;13304;48.464;8.712;2023-09-12T10:14:20;27.40;63.80
25352;DHT22;13304;48.464;8.712;2023-09-12T10:16:47;27.50;63.70
25352;DHT22;13304;48.464;8.712;2023-09-12T10:19:17;27.50;63.40
25352;DHT22;13304;48.464;8.712;2023-09-12T10:21:50;27.50;63.60
25352;DHT22;13304;48.464;8.712;2023-09-12T10:24:19;27.60;60.60
25352;DHT22;13304;48.464;8.712;2023-09-12T10:26:49;27.70;60.90
25352;DHT22;13304;48.464;8.712;2023-09-12T10:29:16;27.70;60.50
25352;DHT22;13304;48.464;8.712;2023-09-12T10:31:41;27.80;60.50
25352;DHT22;13304;48.464;8.712;2023-09-12T10:34:08;27.80;60.70
25352;DHT22;13304;48.464;8.712;2023-09-12T10:36:42;27.90;60.30
25352;DHT22;13304;48.464;8.712;2023-09-12T10:39:10;27.90;59.40
25352;DHT22;13304;48.464;8.712;2023-09-12T10:41:40;28.00;59.10
25352;DHT22;13304;48.464;8.712;2023-09-12T10:44:11;28.00;57.80
25352;DHT22;13304;48.464;8.712;2023-09-12T10:46:39;28.00;58.00
25352;DHT22;13304;48.464;8.712;2023-09-12T10:49:14;28.10;58.70
25352;DHT22;13304;48.464;8.712;2023-09-12T10:51:41;28.20;56.80
25352;DHT22;13304;48.464;8.712;2023-09-12T10:54:07;28.20;57.00
25352;DHT22;13304;48.464;8.712;2023-09-12T10:56:34;28.30;56.90
25352;DHT22;13304;48.464;8.712;2023-09-12T11:01:39;28.40;56.40
25352;DHT22;13304;48.464;8.712;2023-09-12T11:06:46;28.50;55.90
25352;DHT22;13304;48.464;8.712;2023-09-12T11:09:21;28.50;56.20
25352;DHT22;13304;48.464;8.712;2023-09-12T11:11:48;28.60;55.20
25352;DHT22;13304;48.464;8.712;2023-09-12T11:14:15;28.60;55.90
25352;DHT22;13304;48.464;8.712;2023-09-12T11:16:42;28.70;55.20
25352;DHT22;13304;48.464;8.712;2023-09-12T11:21:38;28.70;53.70
25352;DHT22;13304;48.464;8.712;2023-09-12T11:24:04;28.80;53.60
25352;DHT22;13304;48.464;8.712;2023-09-12T11:26:30;28.80;53.80
25352;DHT22;13304;48.464;8.712;2023-09-12T11:28:56;28.90;53.70
25352;DHT22;13304;48.464;8.712;2023-09-12T11:31:26;28.90;53.40
25352;DHT22;13304;48.464;8.712;2023-09-12T11:33:53;28.90;53.90
25352;DHT22;13304;48.464;8.712;2023-09-12T11:36:19;29.00;53.20
25352;DHT22;13304;48.464;8.712;2023-09-12T11:38:49;29.00;52.90
25352;DHT22;13304;48.464;8.712;2023-09-12T11:41:40;29.10;52.30
25352;DHT22;13304;48.464;8.712;2023-09-12T11:44:07;29.10;52.50
25352;DHT22;13304;48.464;8.712;2023-09-12T11:46:34;29.10;52.50
25352;DHT22;13304;48.464;8.712;2023-09-12T11:49:01;29.10;52.40
25352;DHT22;13304;48.464;8.712;2023-09-12T11:51:27;29.10;51.40
25352;DHT22;13304;48.464;8.712;2023-09-12T11:53:52;29.10;50.70
25352;DHT22;13304;48.464;8.712;2023-09-12T11:56:18;29.20;51.20
25352;DHT22;13304;48.464;8.712;2023-09-12T11:58:44;29.20;51.50
25352;DHT22;13304;48.464;8.712;2023-09-12T12:01:12;29.20;51.10
25352;DHT22;13304;48.464;8.712;2023-09-12T12:03:38;29.20;50.70
25352;DHT22;13304;48.464;8.712;2023-09-12T12:06:04;29.20;51.30
25352;DHT22;13304;48.464;8.712;2023-09-12T12:08:31;29.20;50.90
25352;DHT22;13304;48.464;8.712;2023-09-12T12:10:57;29.20;50.60
25352;DHT22;13304;48.464;8.712;2023-09-12T12:13:25;29.30;50.50
25352;DHT22;13304;48.464;8.712;2023-09-12T12:15:53;29.30;50.30
25352;DHT22;13304;48.464;8.712;2023-09-12T12:18:19;29.30;50.60
25352;DHT22;13304;48.464;8.712;2023-09-12T12:20:44;29.30;50.80
25352;DHT22;13304;48.464;8.712;2023-09-12T12:23:10;29.30;50.30
25352;DHT22;13304;48.464;8.712;2023-09-12T12:25:36;29.40;50.10
25352;DHT22;13304;48.464;8.712;2023-09-12T12:28:03;29.40;49.80
25352;DHT22;13304;48.464;8.712;2023-09-12T12:30:33;29.50;49.80
25352;DHT22;13304;48.464;8.712;2023-09-12T12:33:01;29.40;49.30
25352;DHT22;13304;48.464;8.712;2023-09-12T12:35:31;29.50;49.10
25352;DHT22;13304;48.464;8.712;2023-09-12T12:37:57;29.50;49.70
25352;DHT22;13304;48.464;8.712;2023-09-12T12:40:23;29.60;49.30
25352;DHT22;13304;48.464;8.712;2023-09-12T12:42:48;29.60;49.00
25352;DHT22;13304;48.464;8.712;2023-09-12T12:45:24;29.60;48.90
25352;DHT22;13304;48.464;8.712;2023-09-12T12:47:58;29.60;49.00
25352;DHT22;13304;48.464;8.712;2023-09-12T12:50:25;29.70;48.80
25352;DHT22;13304;48.464;8.712;2023-09-12T12:52:51;29.80;49.10
25352;DHT22;13304;48.464;8.712;2023-09-12T12:55:16;29.80;49.00
25352;DHT22;13304;48.464;8.712;2023-09-12T12:57:45;29.80;49.30
25352;DHT22;13304;48.464;8.712;2023-09-12T13:00:14;29.80;47.80
25352;DHT22;13304;48.464;8.712;2023-09-12T13:02:41;29.90;47.90
25352;DHT22;13304;48.464;8.712;2023-09-12T13:07:51;29.90;48.60
25352;DHT22;13304;48.464;8.712;2023-09-12T13:10:18;29.90;48.80
25352;DHT22;13304;48.464;8.712;2023-09-12T13:12:43;29.90;48.30
25352;DHT22;13304;48.464;8.712;2023-09-12T13:15:11;29.80;47.60
25352;DHT22;13304;48.464;8.712;2023-09-12T13:17:38;29.80;47.40
25352;DHT22;13304;48.464;8.712;2023-09-12T13:20:03;29.80;47.50
25352;DHT22;13304;48.464;8.712;2023-09-12T13:22:29;29.80;47.60
25352;DHT22;13304;48.464;8.712;2023-09-12T13:24:55;29.80;47.90
25352;DHT22;13304;48.464;8.712;2023-09-12T13:27:20;29.80;48.00
25352;DHT22;13304;48.464;8.712;2023-09-12T13:29:46;29.80;47.50
25352;DHT22;13304;48.464;8.712;2023-09-12T13:32:13;29.80;47.00
25352;DHT22;13304;48.464;8.712;2023-09-12T13:34:40;29.80;47.30
25352;DHT22;13304;48.464;8.712;2023-09-12T13:37:06;29.80;47.20
25352;DHT22;13304;48.464;8.712;2023-09-12T13:39:32;29.80;47.30
25352;DHT22;13304;48.464;8.712;2023-09-12T13:41:57;29.80;47.00
25352;DHT22;13304;48.464;8.712;2023-09-12T13:44:25;29.80;47.30
25352;DHT22;13304;48.464;8.712;2023-09-12T13:46:50;29.80;47.70
25352;DHT22;13304;48.464;8.712;2023-09-12T13:49:16;29.80;46.40
25352;DHT22;13304;48.464;8.712;2023-09-12T13:51:42;29.80;47.10
25352;DHT22;13304;48.464;8.712;2023-09-12T13:54:07;29.80;47.30
25352;DHT22;13304;48.464;8.712;2023-09-12T13:56:44;29.80;47.40
25352;DHT22;13304;48.464;8.712;2023-09-12T13:59:09;29.90;47.00
25352;DHT22;13304;48.464;8.712;2023-09-12T14:01:35;29.90;47.50
25352;DHT22;13304;48.464;8.712;2023-09-12T14:04:04;29.90;47.40
25352;DHT22;13304;48.464;8.712;2023-09-12T14:06:31;29.90;47.40
25352;DHT22;13304;48.464;8.712;2023-09-12T14:08:57;29.90;47.30
25352;DHT22;13304;48.464;8.712;2023-09-12T14:11:23;29.90;47.40
25352;DHT22;13304;48.464;8.712;2023-09-12T14:13:49;29.90;47.70
25352;DHT22;13304;48.464;8.712;2023-09-12T14:16:14;29.90;47.30
25352;DHT22;13304;48.464;8.712;2023-09-12T14:18:41;29.90;47.10
25352;DHT22;13304;48.464;8.712;2023-09-12T14:21:06;29.90;46.90
25352;DHT22;13304;48.464;8.712;2023-09-12T14:23:32;29.90;47.20
25352;DHT22;13304;48.464;8.712;2023-09-12T14:25:57;29.90;47.00
25352;DHT22;13304;48.464;8.712;2023-09-12T14:28:24;29.90;47.30
25352;DHT22;13304;48.464;8.712;2023-09-12T14:30:49;29.90;46.90
25352;DHT22;13304;48.464;8.712;2023-09-12T14:33:15;30.00;47.30
25352;DHT22;13304;48.464;8.712;2023-09-12T14:35:43;30.00;47.40
25352;DHT22;13304;48.464;8.712;2023-09-12T14:38:08;30.10;46.70
25352;DHT22;13304;48.464;8.712;2023-09-12T14:40:34;30.10;46.10
25352;DHT22;13304;48.464;8.712;2023-09-12T14:43:00;30.10;46.00
25352;DHT22;13304;48.464;8.712;2023-09-12T14:45:27;30.10;45.70
25352;DHT22;13304;48.464;8.712;2023-09-12T14:47:53;30.10;46.10
25352;DHT22;13304;48.464;8.712;2023-09-12T14:50:21;30.10;45.10
25352;DHT22;13304;48.464;8.712;2023-09-12T14:52:49;30.10;45.20
25352;DHT22;13304;48.464;8.712;2023-09-12T14:55:15;30.20;45.80
25352;DHT22;13304;48.464;8.712;2023-09-12T14:57:41;30.20;46.20
25352;DHT22;13304;48.464;8.712;2023-09-12T15:00:07;30.20;46.50
25352;DHT22;13304;48.464;8.712;2023-09-12T15:02:33;30.30;46.80
25352;DHT22;13304;48.464;8.712;2023-09-12T15:04:59;30.30;46.60
25352;DHT22;13304;48.464;8.712;2023-09-12T15:07:25;30.30;46.50
25352;DHT22;13304;48.464;8.712;2023-09-12T15:09:51;30.20;46.40
25352;DHT22;13304;48.464;8.712;2023-09-12T15:12:16;30.20;46.40
25352;DHT22;13304;48.464;8.712;2023-09-12T15:14:42;30.20;46.10
25352;DHT22;13304;48.464;8.712;2023-09-12T15:17:08;30.10;46.30
25352;DHT22;13304;48.464;8.712;2023-09-12T15:19:33;30.10;46.30
25352;DHT22;13304;48.464;8.712;2023-09-12T15:21:59;30.10;46.30
25352;DHT22;13304;48.464;8.712;2023-09-12T15:24:24;30.10;45.90
25352;DHT22;13304;48.464;8.712;2023-09-12T15:26:52;30.00;46.20
25352;DHT22;13304;48.464;8.712;2023-09-12T15:29:17;30.00;46.20
25352;DHT22;13304;48.464;8.712;2023-09-12T15:31:43;29.90;46.20
25352;DHT22;13304;48.464;8.712;2023-09-12T15:34:09;29.90;46.60
25352;DHT22;13304;48.464;8.712;2023-09-12T15:36:45;29.80;46.60
25352;DHT22;13304;48.464;8.712;2023-09-12T15:39:11;29.80;46.80
25352;DHT22;13304;48.464;8.712;2023-09-12T15:41:37;29.70;46.90